createdAt,value
2022-12-18T00:01:34.061Z,26.20
2022-12-18T00:04:00.630Z,26.90
2022-12-18T00:06:27.093Z,26.79
2022-12-18T00:08:54.785Z,28.53
2022-12-18T00:11:21.352Z,28.30
2022-12-18T00:13:47.762Z,28.86
2022-12-18T00:16:14.569Z,30.09
2022-12-18T00:18:44.256Z,28.64
2022-12-18T00:21:11.880Z,29.84
2022-12-18T00:23:38.653Z,30.39
2022-12-18T00:26:05.278Z,31.14
2022-12-18T00:28:31.675Z,30.36
2022-12-18T00:30:59.144Z,29.36
2022-12-18T00:33:28.077Z,30.12
2022-12-18T00:35:54.432Z,30.18
2022-12-18T00:38:20.831Z,29.90
2022-12-18T00:40:47.417Z,29.43
2022-12-18T00:43:13.857Z,29.79
2022-12-18T00:45:40.327Z,28.27
2022-12-18T00:48:07.227Z,28.72
2022-12-18T00:50:33.588Z,28.45
2022-12-18T00:52:59.937Z,28.28
2022-12-18T00:55:26.318Z,28.27
2022-12-18T00:57:55.866Z,28.17
2022-12-18T01:00:22.219Z,28.45
2022-12-18T01:02:51.216Z,28.06
2022-12-18T01:05:17.641Z,28.07
2022-12-18T01:07:44.017Z,28.32
2022-12-18T01:10:10.811Z,28.94
2022-12-18T01:12:39.617Z,28.63
2022-12-18T01:15:06.064Z,27.63
2022-12-18T01:17:32.459Z,27.48
2022-12-18T01:20:01.120Z,27.16
2022-12-18T01:22:27.765Z,27.31
2022-12-18T01:24:56.800Z,27.52
2022-12-18T01:27:23.562Z,27.11
2022-12-18T01:29:50.095Z,27.04
2022-12-18T01:32:16.479Z,27.17
2022-12-18T01:34:42.838Z,27.14
2022-12-18T01:37:09.368Z,27.17
2022-12-18T01:39:35.838Z,27.28
2022-12-18T01:42:04.052Z,27.54
2022-12-18T01:44:30.738Z,26.60
2022-12-18T01:46:57.237Z,25.78
2022-12-18T01:49:27.122Z,25.60
2022-12-18T01:51:54.824Z,24.88
2022-12-18T01:54:21.179Z,25.80
2022-12-18T01:56:47.638Z,25.04
2022-12-18T01:59:16.554Z,26.00
2022-12-18T02:01:43.136Z,27.34
2022-12-18T02:04:09.561Z,27.00
2022-12-18T02:06:36.034Z,26.78
2022-12-18T02:09:03.546Z,26.77
2022-12-18T02:11:29.939Z,26.55
2022-12-18T02:13:56.314Z,26.67
2022-12-18T02:16:22.837Z,25.79
2022-12-18T02:18:50.013Z,26.15
2022-12-18T02:21:17.031Z,25.39
2022-12-18T02:23:43.916Z,25.04
2022-12-18T02:26:10.310Z,25.76
2022-12-18T02:28:36.653Z,25.05
2022-12-18T02:31:04.462Z,24.37
2022-12-18T02:33:30.923Z,24.79
2022-12-18T02:35:57.263Z,23.57
2022-12-18T02:38:25.907Z,24.66
2022-12-18T02:40:52.539Z,24.02
2022-12-18T02:43:18.987Z,23.49
2022-12-18T02:45:47.922Z,22.98
2022-12-18T02:48:14.339Z,23.14
2022-12-18T02:50:40.837Z,22.97
2022-12-18T02:53:08.251Z,22.74
2022-12-18T02:55:35.720Z,22.26
2022-12-18T02:58:02.276Z,21.97
2022-12-18T03:00:31.011Z,22.23
2022-12-18T03:02:58.531Z,20.89
2022-12-18T03:05:25.352Z,21.29
2022-12-18T03:07:51.827Z,21.34
2022-12-18T03:10:18.245Z,20.78
2022-12-18T03:12:45.041Z,20.58
2022-12-18T03:15:17.262Z,20.39
2022-12-18T03:17:44.989Z,20.92
2022-12-18T03:20:12.207Z,20.49
2022-12-18T03:22:38.688Z,19.66
2022-12-18T03:25:05.077Z,20.01
2022-12-18T03:27:31.581Z,20.44
2022-12-18T03:29:58.070Z,19.53
2022-12-18T03:32:24.437Z,20.06
2022-12-18T03:34:51.168Z,20.55
2022-12-18T03:37:18.064Z,20.05
2022-12-18T03:39:44.769Z,19.71
2022-12-18T03:42:11.211Z,19.76
2022-12-18T03:44:37.834Z,19.81
2022-12-18T03:47:04.359Z,19.27
2022-12-18T03:49:32.895Z,18.87
2022-12-18T03:51:59.263Z,18.08
2022-12-18T03:54:25.929Z,17.98
2022-12-18T03:56:52.322Z,17.05
2022-12-18T03:59:20.121Z,17.61
2022-12-18T04:01:46.592Z,17.33
2022-12-18T04:04:13.115Z,16.79
2022-12-18T04:06:39.496Z,16.29
2022-12-18T04:09:05.864Z,16.52
2022-12-18T04:11:32.234Z,16.00
2022-12-18T04:13:58.608Z,16.45
2022-12-18T04:16:25.110Z,15.56
2022-12-18T04:18:51.481Z,15.06
2022-12-18T04:21:18.018Z,14.99
2022-12-18T04:23:44.572Z,14.70
2022-12-18T04:26:11.012Z,14.93
2022-12-18T04:28:37.463Z,14.23
2022-12-18T04:31:03.968Z,14.43
2022-12-18T04:33:33.221Z,13.79
2022-12-18T04:35:59.591Z,13.99
2022-12-18T04:38:26.017Z,14.20
2022-12-18T04:40:52.363Z,14.27
2022-12-18T04:43:18.912Z,14.48
2022-12-18T04:45:48.257Z,14.69
2022-12-18T04:48:14.821Z,13.77
2022-12-18T04:50:43.528Z,13.83
2022-12-18T04:53:11.948Z,14.42
2022-12-18T04:55:40.490Z,14.36
2022-12-18T04:58:07.089Z,13.61
2022-12-18T05:00:37.552Z,14.61
2022-12-18T05:03:04.295Z,13.81
2022-12-18T05:05:30.731Z,14.06
2022-12-18T05:07:57.559Z,13.91
2022-12-18T05:10:24.273Z,12.97
2022-12-18T05:12:50.893Z,12.85
2022-12-18T05:15:17.324Z,13.22
2022-12-18T05:17:43.918Z,13.01
2022-12-18T05:20:10.310Z,13.52
2022-12-18T05:22:36.719Z,13.42
2022-12-18T05:25:03.194Z,13.63
2022-12-18T05:27:34.672Z,13.27
2022-12-18T05:30:01.027Z,13.17
2022-12-18T05:32:27.494Z,13.07
2022-12-18T05:34:54.194Z,12.95
2022-12-18T05:37:20.959Z,12.82
2022-12-18T05:39:48.175Z,13.40
2022-12-18T05:42:15.572Z,12.68
2022-12-18T05:44:42.197Z,13.21
2022-12-18T05:47:09.096Z,12.96
2022-12-18T05:49:38.742Z,13.15
2022-12-18T05:52:05.096Z,13.06
2022-12-18T05:54:31.479Z,13.47
2022-12-18T05:57:02.365Z,13.56
2022-12-18T05:59:29.080Z,13.28
2022-12-18T06:01:55.800Z,13.22
2022-12-18T06:04:22.285Z,13.08
2022-12-18T06:06:48.687Z,13.41
2022-12-18T06:09:15.126Z,13.35
2022-12-18T06:11:44.001Z,13.37
2022-12-18T06:14:10.913Z,13.25
2022-12-18T06:16:37.371Z,13.60
2022-12-18T06:19:03.783Z,13.11
2022-12-18T06:21:30.428Z,13.31
2022-12-18T06:23:57.766Z,12.71
2022-12-18T06:26:28.272Z,13.04
2022-12-18T06:28:55.069Z,12.85
2022-12-18T06:31:21.735Z,13.52
2022-12-18T06:33:48.336Z,14.15
2022-12-18T06:36:17.421Z,14.09
2022-12-18T06:38:46.278Z,13.78
2022-12-18T06:41:12.685Z,14.29
2022-12-18T06:43:39.392Z,14.06
2022-12-18T06:46:06.372Z,14.58
2022-12-18T06:48:32.781Z,13.94
2022-12-18T06:50:59.132Z,14.34
2022-12-18T06:53:25.957Z,15.32
2022-12-18T06:55:52.295Z,14.07
2022-12-18T06:58:19.571Z,14.08
2022-12-18T07:00:45.992Z,14.14
2022-12-18T07:03:12.714Z,13.60
2022-12-18T07:05:39.133Z,14.47
2022-12-18T07:08:07.746Z,14.02
2022-12-18T07:10:34.472Z,13.70
2022-12-18T07:13:01.036Z,13.92
2022-12-18T07:15:27.626Z,13.63
2022-12-18T07:17:53.957Z,13.76
2022-12-18T07:20:20.297Z,14.10
2022-12-18T07:22:51.983Z,14.72
2022-12-18T07:25:21.502Z,15.27
2022-12-18T07:27:47.885Z,16.52
2022-12-18T07:30:14.264Z,15.74
2022-12-18T07:32:43.002Z,16.61
2022-12-18T07:35:10.379Z,17.39
2022-12-18T07:37:37.748Z,16.03
2022-12-18T07:40:04.273Z,17.32
2022-12-18T07:42:30.682Z,17.59
2022-12-18T07:44:57.192Z,17.34
2022-12-18T07:47:24.669Z,17.60
2022-12-18T07:49:53.544Z,17.00
2022-12-18T07:52:25.577Z,16.65
2022-12-18T07:54:52.414Z,16.08
2022-12-18T07:57:41.853Z,16.21
2022-12-18T08:00:05.132Z,16.18
2022-12-18T08:02:31.865Z,16.69
2022-12-18T08:05:01.633Z,16.95
2022-12-18T08:07:29.833Z,17.65
2022-12-18T08:09:56.568Z,18.42
2022-12-18T08:12:23.468Z,18.73
2022-12-18T08:14:53.423Z,18.50
2022-12-18T08:17:20.111Z,18.23
2022-12-18T08:19:46.505Z,18.86
2022-12-18T08:22:12.985Z,19.01
2022-12-18T08:24:39.339Z,18.56
2022-12-18T08:27:28.476Z,17.95
2022-12-18T08:29:53.580Z,17.71
2022-12-18T08:32:21.244Z,18.15
2022-12-18T08:34:47.854Z,17.71
2022-12-18T08:37:22.797Z,16.65
2022-12-18T08:39:49.416Z,15.47
2022-12-18T08:42:16.045Z,14.93
2022-12-18T08:44:43.981Z,14.50
2022-12-18T08:47:10.729Z,14.25
2022-12-18T08:49:37.309Z,14.38
2022-12-18T08:52:03.873Z,14.66
2022-12-18T08:54:32.806Z,14.99
2022-12-18T08:56:59.264Z,14.28
2022-12-18T08:59:25.869Z,14.82
2022-12-18T09:02:00.167Z,14.11
2022-12-18T09:04:27.992Z,13.72
2022-12-18T09:06:56.756Z,14.32
2022-12-18T09:09:23.129Z,14.24
2022-12-18T09:11:50.036Z,16.07
2022-12-18T09:14:18.790Z,18.09
2022-12-18T09:16:45.235Z,17.18
2022-12-18T09:19:11.650Z,15.53
2022-12-18T09:21:38.021Z,16.07
2022-12-18T09:24:08.632Z,15.62
2022-12-18T09:26:35.750Z,15.92
2022-12-18T09:29:02.160Z,16.01
2022-12-18T09:31:28.807Z,13.97
2022-12-18T09:33:55.420Z,14.09
2022-12-18T09:36:21.891Z,15.25
2022-12-18T09:38:48.384Z,16.21
2022-12-18T09:41:15.844Z,15.74
2022-12-18T09:43:42.409Z,15.59
2022-12-18T09:46:08.943Z,15.12
2022-12-18T09:48:35.908Z,14.85
2022-12-18T09:51:06.599Z,15.50
2022-12-18T09:53:32.948Z,15.38
2022-12-18T09:56:01.530Z,15.72
2022-12-18T09:58:30.028Z,15.93
2022-12-18T10:00:56.937Z,17.54
2022-12-18T10:03:23.434Z,20.11
2022-12-18T10:05:52.336Z,19.71
2022-12-18T10:08:18.683Z,19.72
2022-12-18T10:10:45.058Z,20.08
2022-12-18T10:13:13.669Z,20.09
2022-12-18T10:15:40.248Z,20.62
2022-12-18T10:18:06.614Z,18.78
2022-12-18T10:20:32.997Z,17.45
2022-12-18T10:23:00.379Z,16.94
2022-12-18T10:25:28.182Z,17.41
2022-12-18T10:27:54.787Z,18.09
2022-12-18T10:30:21.135Z,18.57
2022-12-18T10:32:47.515Z,19.41
2022-12-18T10:35:14.180Z,20.21
2022-12-18T10:37:40.870Z,20.30
2022-12-18T10:40:08.055Z,20.82
2022-12-18T10:42:36.557Z,20.24
2022-12-18T10:45:04.131Z,20.30
2022-12-18T10:47:30.521Z,21.33
2022-12-18T10:49:56.901Z,20.70
2022-12-18T10:52:24.410Z,21.88
2022-12-18T10:54:50.823Z,24.32
2022-12-18T10:57:17.267Z,23.37
2022-12-18T10:59:43.627Z,21.72
2022-12-18T11:02:11.211Z,21.30
2022-12-18T11:04:37.628Z,19.94
2022-12-18T11:07:05.063Z,20.86
2022-12-18T11:09:31.688Z,20.36
2022-12-18T11:12:00.498Z,20.97
2022-12-18T11:14:27.296Z,20.85
2022-12-18T11:19:40.406Z,21.09
2022-12-18T11:22:06.855Z,23.91
2022-12-18T11:24:33.198Z,23.55
2022-12-18T11:27:00.207Z,23.84
2022-12-18T11:29:26.602Z,22.89
2022-12-18T11:31:53.135Z,20.92
2022-12-18T11:34:28.995Z,20.79
2022-12-18T11:36:55.940Z,19.36
2022-12-18T11:39:22.521Z,19.34
2022-12-18T11:41:49.724Z,19.05
2022-12-18T11:44:18.996Z,18.82
2022-12-18T11:46:46.390Z,18.94
2022-12-18T11:49:13.153Z,18.95
2022-12-18T11:51:39.543Z,19.18
2022-12-18T11:54:05.882Z,19.48
2022-12-18T11:56:32.286Z,19.35
2022-12-18T11:58:59.045Z,17.99
2022-12-18T12:01:25.619Z,17.01
2022-12-18T12:03:52.046Z,15.98
2022-12-18T12:06:18.512Z,14.95
2022-12-18T12:08:45.149Z,16.07
2022-12-18T12:11:11.495Z,15.71
2022-12-18T12:13:38.107Z,15.93
2022-12-18T12:16:04.796Z,17.09
2022-12-18T12:18:31.266Z,16.83
2022-12-18T12:20:57.832Z,18.32
2022-12-18T12:23:27.636Z,19.17
2022-12-18T12:25:54.700Z,18.24
2022-12-18T12:28:22.121Z,18.67
2022-12-18T12:30:48.588Z,18.58
2022-12-18T12:33:15.326Z,18.28
2022-12-18T12:35:41.987Z,18.08
2022-12-18T12:38:08.332Z,18.76
2022-12-18T12:40:52.616Z,18.47
2022-12-18T12:43:21.143Z,17.31
2022-12-18T12:45:50.900Z,17.09
2022-12-18T12:48:25.026Z,16.57
2022-12-18T12:50:52.511Z,14.64
2022-12-18T12:53:19.040Z,14.03
2022-12-18T12:55:45.910Z,13.66
2022-12-18T12:58:12.913Z,13.51
2022-12-18T13:00:39.265Z,13.66
2022-12-18T13:03:06.622Z,14.29
2022-12-18T13:05:34.279Z,14.99
2022-12-18T13:08:03.251Z,14.66
2022-12-18T13:10:30.196Z,14.32
2022-12-18T13:12:56.887Z,14.51
2022-12-18T13:15:24.320Z,13.36
2022-12-18T13:17:52.219Z,13.69
2022-12-18T13:20:19.122Z,13.50
2022-12-18T13:22:45.459Z,12.89
2022-12-18T13:25:11.933Z,13.39
2022-12-18T13:27:38.587Z,13.24
2022-12-18T13:30:06.343Z,13.00
2022-12-18T13:32:33.464Z,14.08
2022-12-18T13:35:01.136Z,14.97
2022-12-18T13:37:27.648Z,15.13
2022-12-18T13:39:54.143Z,14.52
2022-12-18T13:42:20.719Z,14.94
2022-12-18T13:44:47.097Z,14.27
2022-12-18T13:47:13.579Z,14.70
2022-12-18T13:49:40.971Z,14.52
2022-12-18T13:52:07.316Z,14.61
2022-12-18T13:54:33.748Z,14.30
2022-12-18T13:57:00.126Z,15.11
2022-12-18T13:59:26.568Z,14.53
2022-12-18T14:01:53.923Z,14.18
2022-12-18T14:04:20.522Z,14.61
2022-12-18T14:06:46.945Z,13.80
2022-12-18T14:09:20.313Z,14.05
2022-12-18T14:11:47.998Z,15.20
2022-12-18T14:14:14.382Z,15.09
2022-12-18T14:16:40.950Z,14.73
2022-12-18T14:19:15.150Z,15.32
2022-12-18T14:21:42.206Z,15.22
2022-12-18T14:24:08.647Z,14.96
2022-12-18T14:26:36.036Z,14.15
2022-12-18T14:29:02.428Z,14.38
2022-12-18T14:31:29.773Z,14.18
2022-12-18T14:33:56.255Z,13.66
2022-12-18T14:36:22.713Z,13.37
2022-12-18T14:38:49.179Z,13.60
2022-12-18T14:41:15.618Z,12.73
2022-12-18T14:43:43.414Z,12.77
2022-12-18T14:46:10.210Z,13.12
2022-12-18T14:48:37.148Z,13.78
2022-12-18T14:51:03.532Z,13.73
2022-12-18T14:53:30.493Z,14.14
2022-12-18T14:55:57.313Z,13.87
2022-12-18T14:58:24.036Z,13.87
2022-12-18T15:00:50.774Z,14.49
2022-12-18T15:03:17.178Z,14.48
2022-12-18T15:05:45.247Z,14.30
2022-12-18T15:08:13.911Z,14.12
2022-12-18T15:10:40.500Z,13.86
2022-12-18T15:13:06.959Z,14.43
2022-12-18T15:15:33.604Z,13.65
2022-12-18T15:17:59.985Z,13.18
2022-12-18T15:20:28.423Z,14.06
2022-12-18T15:22:54.800Z,14.11
2022-12-18T15:25:21.173Z,13.72
2022-12-18T15:27:47.486Z,13.89
2022-12-18T15:30:16.103Z,13.96
2022-12-18T15:32:42.501Z,14.18
2022-12-18T15:35:08.843Z,13.62
2022-12-18T15:37:35.285Z,13.80
2022-12-18T15:40:01.954Z,13.93
2022-12-18T15:42:28.497Z,14.48
2022-12-18T15:44:57.950Z,13.68
2022-12-18T15:47:24.517Z,14.21
2022-12-18T15:49:51.078Z,13.97
2022-12-18T15:52:19.633Z,14.58
2022-12-18T15:54:46.141Z,14.24
2022-12-18T15:57:14.994Z,13.89
2022-12-18T15:59:41.596Z,14.44
2022-12-18T16:02:08.389Z,17.25
2022-12-18T16:04:35.245Z,20.41
2022-12-18T16:07:19.326Z,21.47
2022-12-18T16:09:49.304Z,23.82
2022-12-18T16:12:15.750Z,23.63
2022-12-18T16:14:43.102Z,22.22
2022-12-18T16:17:09.630Z,20.27
2022-12-18T16:19:36.000Z,18.11
2022-12-18T16:22:02.472Z,18.27
2022-12-18T16:24:28.950Z,19.04
2022-12-18T16:26:55.462Z,19.70
2022-12-18T16:29:21.999Z,20.27
2022-12-18T16:31:50.569Z,20.28
2022-12-18T16:34:19.650Z,20.03
2022-12-18T16:36:48.263Z,21.05
2022-12-18T16:39:14.603Z,19.54
2022-12-18T16:41:42.720Z,17.59
2022-12-18T16:44:09.117Z,16.21
2022-12-18T16:46:35.576Z,16.34
2022-12-18T16:49:01.983Z,16.23
2022-12-18T16:51:28.350Z,16.56
2022-12-18T16:53:54.814Z,17.31
2022-12-18T16:56:21.314Z,17.70
2022-12-18T16:58:49.702Z,16.88
2022-12-18T17:01:16.128Z,17.01
2022-12-18T17:03:42.907Z,17.50
2022-12-18T17:06:11.043Z,17.35
2022-12-18T17:08:40.437Z,17.81
2022-12-18T17:11:07.001Z,17.72
2022-12-18T17:13:33.490Z,17.47
2022-12-18T17:16:00.009Z,17.90
2022-12-18T17:18:26.415Z,17.63
2022-12-18T17:20:52.849Z,18.09
2022-12-18T17:23:19.338Z,17.71
2022-12-18T17:25:45.922Z,17.10
2022-12-18T17:28:13.045Z,17.10
2022-12-18T17:30:39.429Z,16.75
2022-12-18T17:33:08.939Z,17.25
2022-12-18T17:35:35.317Z,17.13
2022-12-18T17:38:01.661Z,17.00
2022-12-18T17:40:28.227Z,17.78
2022-12-18T17:42:54.623Z,17.23
2022-12-18T17:45:21.081Z,17.04
2022-12-18T17:47:59.722Z,17.07
2022-12-18T17:50:26.549Z,16.64
2022-12-18T17:52:53.365Z,17.13
2022-12-18T17:55:19.776Z,16.73
2022-12-18T17:57:48.184Z,17.58
2022-12-18T18:00:14.737Z,16.97
2022-12-18T18:02:41.407Z,16.76
2022-12-18T18:05:10.569Z,16.46
2022-12-18T18:07:38.500Z,16.83
2022-12-18T18:10:05.135Z,17.36
2022-12-18T18:12:32.116Z,17.67
2022-12-18T18:14:58.857Z,17.70
2022-12-18T18:17:25.589Z,17.33
2022-12-18T18:19:51.975Z,17.58
2022-12-18T18:22:30.997Z,17.34
2022-12-18T18:25:04.996Z,17.23
2022-12-18T18:27:38.264Z,17.77
2022-12-18T18:30:05.154Z,18.57
2022-12-18T18:32:32.322Z,20.89
2022-12-18T18:34:58.849Z,21.14
2022-12-18T18:37:26.405Z,20.52
2022-12-18T18:39:52.865Z,20.09
2022-12-18T18:42:19.310Z,19.82
2022-12-18T18:44:48.917Z,18.52
2022-12-18T18:47:15.814Z,19.14
2022-12-18T18:49:42.273Z,18.10
2022-12-18T18:52:09.835Z,17.64
2022-12-18T18:54:36.349Z,17.75
2022-12-18T18:57:20.014Z,18.28
2022-12-18T18:59:47.630Z,17.44
2022-12-18T19:02:14.569Z,17.88
2022-12-18T19:04:45.672Z,19.80
2022-12-18T19:07:12.878Z,23.11
2022-12-18T19:09:41.974Z,20.66
2022-12-18T19:12:08.311Z,19.15
2022-12-18T19:14:34.943Z,19.26
2022-12-18T19:17:01.427Z,19.37
2022-12-18T19:19:30.064Z,19.48
2022-12-18T19:21:56.631Z,19.24
2022-12-18T19:24:23.195Z,19.45
2022-12-18T19:26:49.823Z,19.68
2022-12-18T19:29:16.192Z,18.73
2022-12-18T19:31:42.767Z,19.38
2022-12-18T19:34:09.330Z,18.96
2022-12-18T19:36:35.903Z,17.87
2022-12-18T19:39:04.793Z,17.61
2022-12-18T19:41:32.837Z,17.54
2022-12-18T19:44:02.270Z,17.95
2022-12-18T19:46:35.829Z,18.71
2022-12-18T19:49:02.340Z,19.49
2022-12-18T19:51:30.109Z,19.07
2022-12-18T19:53:58.836Z,19.10
2022-12-18T19:56:26.830Z,18.45
2022-12-18T19:58:53.294Z,18.24
2022-12-18T20:01:20.228Z,18.45
2022-12-18T20:03:51.871Z,17.91
2022-12-18T20:06:19.268Z,18.13
2022-12-18T20:08:46.112Z,18.42
2022-12-18T20:11:16.357Z,18.98
2022-12-18T20:13:43.024Z,19.48
2022-12-18T20:16:11.524Z,19.26
2022-12-18T20:18:37.956Z,19.58
2022-12-18T20:21:06.264Z,19.63
2022-12-18T20:23:34.337Z,18.80
2022-12-18T20:26:03.630Z,18.60
2022-12-18T20:28:32.652Z,18.27
2022-12-18T20:30:59.326Z,18.61
2022-12-18T20:33:25.718Z,18.72
2022-12-18T20:35:52.085Z,19.19
2022-12-18T20:38:19.373Z,19.11
2022-12-18T20:40:50.115Z,19.38
2022-12-18T20:43:17.454Z,19.49
2022-12-18T20:45:44.082Z,19.02
2022-12-18T20:48:12.391Z,18.56
2022-12-18T20:50:38.738Z,19.07
2022-12-18T20:53:05.638Z,21.72
2022-12-18T20:55:32.374Z,20.73
2022-12-18T20:57:58.734Z,19.18
2022-12-18T21:00:25.197Z,19.00
2022-12-18T21:02:53.290Z,19.32
2022-12-18T21:05:19.793Z,19.02
2022-12-18T21:07:46.510Z,19.23
2022-12-18T21:10:12.992Z,18.64
2022-12-18T21:12:42.711Z,18.71
2022-12-18T21:15:16.153Z,18.86
2022-12-18T21:17:45.472Z,18.35
2022-12-18T21:20:13.273Z,17.89
2022-12-18T21:22:44.103Z,19.31
2022-12-18T21:25:10.439Z,19.26
2022-12-18T21:27:39.303Z,18.86
2022-12-18T21:30:05.651Z,19.09
2022-12-18T21:32:33.562Z,19.81
2022-12-18T21:35:00.367Z,22.25
2022-12-18T21:37:26.962Z,23.35
2022-12-18T21:39:53.741Z,22.57
2022-12-18T21:42:20.411Z,23.28
2022-12-18T21:44:47.097Z,21.74
2022-12-18T21:47:22.899Z,21.25
2022-12-18T21:49:49.793Z,21.30
2022-12-18T21:52:16.599Z,18.72
2022-12-18T21:54:42.963Z,18.69
2022-12-18T21:57:10.395Z,18.21
2022-12-18T21:59:37.015Z,18.27
2022-12-18T22:02:03.631Z,20.60
2022-12-18T22:04:32.452Z,19.38
2022-12-18T22:07:01.157Z,19.88
2022-12-18T22:09:27.978Z,20.62
2022-12-18T22:11:54.427Z,20.52
2022-12-18T22:14:21.828Z,20.60
2022-12-18T22:16:51.357Z,21.41
2022-12-18T22:19:18.414Z,22.73
2022-12-18T22:21:45.539Z,27.46
2022-12-18T22:24:13.065Z,28.06
2022-12-18T22:26:40.479Z,22.88
2022-12-18T22:29:07.003Z,19.62
2022-12-18T22:31:33.512Z,20.01
2022-12-18T22:34:00.109Z,18.87
2022-12-18T22:36:26.705Z,18.64
2022-12-18T22:38:53.100Z,19.36
2022-12-18T22:41:20.191Z,20.08
2022-12-18T22:43:46.751Z,20.12
2022-12-18T22:46:15.573Z,19.35
2022-12-18T22:48:42.148Z,18.99
2022-12-18T22:51:08.943Z,18.88
2022-12-18T22:53:35.857Z,18.60
2022-12-18T22:56:02.327Z,18.14
2022-12-18T22:58:28.900Z,19.21
2022-12-18T23:00:55.275Z,18.64
2022-12-18T23:03:21.746Z,18.45
2022-12-18T23:05:49.115Z,19.02
2022-12-18T23:08:16.913Z,18.71
2022-12-18T23:10:44.087Z,18.35
2022-12-18T23:13:10.483Z,18.41
2022-12-18T23:15:36.902Z,17.88
2022-12-18T23:18:03.272Z,18.15
2022-12-18T23:20:30.743Z,18.64
2022-12-18T23:22:57.224Z,18.48
2022-12-18T23:25:23.786Z,19.38
2022-12-18T23:27:50.208Z,20.02
2022-12-18T23:30:19.211Z,20.02
2022-12-18T23:32:46.807Z,20.57
2022-12-18T23:35:15.578Z,20.69
2022-12-18T23:37:58.849Z,20.50
2022-12-18T23:40:26.259Z,21.03
2022-12-18T23:42:52.714Z,20.60
2022-12-18T23:45:19.073Z,20.88
2022-12-18T23:47:45.441Z,20.66
2022-12-18T23:50:14.486Z,21.23
2022-12-18T23:52:41.215Z,21.66
2022-12-18T23:55:07.969Z,20.85
2022-12-18T23:57:34.439Z,21.13
